フランクフルト の空港の天気 - METARとTAF

フランクフルト国際空港 ( EDDF / FRA ) - ドイツ フランクフルト・アム・マイン
飛行場実況気象(Metar)
観測時間07/28 14:36 CEST (07/28 12:36 UTC)
風向・風速西南西 6m/s 瞬間風速12m/s
視程10km以上
天気現象
全天の4割程度の雲 雲底高度 1340m
全天の8割程度の雲 雲底高度 7620m
気温22℃
湿度50%
気圧1014hPa
METAREDDF 281236Z 24012G23KT 9999 SCT044 BKN250 22/11 Q1014 TEMPO 24015G25KT
過去の天気等 Google飛行場航空写真 Wunderground天気予報

過去48時間のMETAR

飛行場予報(TAF)
発表時間: 7/28 13:00 CEST (7/28 11:00 UTC)
予報対象時間: 28日14時 CEST ~ 29日20時 CEST
風向・風速南西 8m/s 瞬間風速 13m/s
視程10km以上
なし
28日18時 CEST ~ 28日21時 CEST に徐々に
風向・風速南 3m/s
29日8時 CEST ~ 29日10時 CEST に徐々に
風向・風速南南西 6m/s
TAF EDDF 281100Z 2812/2918 23015G25KT CAVOK
BECMG 2816/2819 19006KT
BECMG 2906/2908 21011KT